TimeCDT,TemperatureF,Dew PointF,Humidity,Sea Level PressureIn,VisibilityMPH,Wind Direction,Wind SpeedMPH,Gust SpeedMPH,PrecipitationIn,Events,Conditions,WindDirDegrees,DateUTC
12:15 AM,75.2,69.8,83,29.76,10.0,South,10.4,-,N/A,,Clear,170,2013-08-21 05:15:00
12:35 AM,75.2,69.8,83,29.78,10.0,South,8.1,-,N/A,,Clear,180,2013-08-21 05:35:00
12:55 AM,75.2,69.8,83,29.79,10.0,SSW,4.6,-,N/A,,Clear,210,2013-08-21 05:55:00
1:15 AM,73.4,68.0,83,29.79,10.0,South,3.5,-,N/A,,Clear,170,2013-08-21 06:15:00
1:35 AM,73.4,68.0,83,29.80,10.0,Calm,Calm,-,N/A,,Clear,0,2013-08-21 06:35:00
1:55 AM,73.4,68.0,83,29.80,10.0,Calm,Calm,-,N/A,,Clear,0,2013-08-21 06:55:00
2:15 AM,71.6,68.0,88,29.79,10.0,Calm,Calm,-,N/A,,Clear,0,2013-08-21 07:15:00
2:35 AM,71.6,68.0,88,29.79,10.0,SSE,4.6,-,N/A,,Clear,150,2013-08-21 07:35:00
2:55 AM,71.6,68.0,88,29.79,10.0,SSE,3.5,-,N/A,,Clear,150,2013-08-21 07:55:00
3:15 AM,71.6,68.0,88,29.80,7.0,SSE,3.5,-,N/A,,Clear,160,2013-08-21 08:15:00
3:35 AM,71.6,68.0,88,29.80,7.0,Calm,Calm,-,N/A,,Clear,0,2013-08-21 08:35:00
3:55 AM,69.8,66.2,88,29.80,7.0,Calm,Calm,-,N/A,,Clear,0,2013-08-21 08:55:00
4:15 AM,68.0,64.4,88,29.81,7.0,Calm,Calm,-,N/A,,Clear,0,2013-08-21 09:15:00
4:35 AM,68.0,62.6,83,29.81,5.0,West,3.5,-,N/A,,Clear,280,2013-08-21 09:35:00
4:55 AM,68.0,64.4,88,29.81,7.0,NNW,9.2,-,N/A,,Clear,330,2013-08-21 09:55:00
5:15 AM,69.8,64.4,83,29.83,10.0,North,12.7,-,N/A,,Clear,350,2013-08-21 10:15:00
5:35 AM,69.8,60.8,73,29.84,10.0,North,12.7,-,N/A,,Clear,360,2013-08-21 10:35:00
5:55 AM,68.0,57.2,68,29.85,10.0,North,15.0,23.0,N/A,,Clear,360,2013-08-21 10:55:00
6:15 AM,64.4,55.4,73,29.85,10.0,North,15.0,19.6,N/A,,Clear,10,2013-08-21 11:15:00
6:35 AM,64.4,55.4,73,29.85,10.0,North,13.8,20.7,N/A,,Clear,360,2013-08-21 11:35:00
6:55 AM,64.4,55.4,73,29.86,10.0,North,16.1,20.7,N/A,,Clear,360,2013-08-21 11:55:00
7:15 AM,62.6,55.4,77,29.87,10.0,North,13.8,18.4,N/A,,Clear,360,2013-08-21 12:15:00
7:35 AM,64.4,55.4,73,29.89,10.0,North,12.7,20.7,N/A,,Clear,360,2013-08-21 12:35:00
7:55 AM,64.4,55.4,73,29.89,10.0,North,16.1,19.6,N/A,,Clear,10,2013-08-21 12:55:00
8:15 AM,64.4,55.4,73,29.90,10.0,North,13.8,-,N/A,,Clear,10,2013-08-21 13:15:00
8:35 AM,64.4,55.4,73,29.91,10.0,NNE,12.7,18.4,N/A,,Clear,20,2013-08-21 13:35:00
8:55 AM,68.0,55.4,64,29.92,10.0,NNE,10.4,-,N/A,,Clear,20,2013-08-21 13:55:00
9:15 AM,69.8,55.4,60,29.92,10.0,NNE,6.9,-,N/A,,Clear,20,2013-08-21 14:15:00
9:35 AM,71.6,55.4,57,29.92,10.0,NNE,8.1,-,N/A,,Clear,30,2013-08-21 14:35:00
9:55 AM,71.6,57.2,60,29.93,10.0,NNE,10.4,-,N/A,,Clear,20,2013-08-21 14:55:00
10:15 AM,73.4,57.2,57,29.94,10.0,North,11.5,-,N/A,,Clear,10,2013-08-21 15:15:00
10:35 AM,77.0,57.2,50,29.96,10.0,North,8.1,-,N/A,,Clear,10,2013-08-21 15:35:00
10:55 AM,77.0,57.2,50,29.96,10.0,North,10.4,-,N/A,,Clear,360,2013-08-21 15:55:00
11:15 AM,77.0,57.2,50,29.96,10.0,North,8.1,-,N/A,,Clear,10,2013-08-21 16:15:00
11:35 AM,78.8,57.2,47,29.96,10.0,NNE,9.2,-,N/A,,Clear,30,2013-08-21 16:35:00
11:55 AM,80.6,57.2,45,29.96,10.0,North,10.4,17.3,N/A,,Clear,10,2013-08-21 16:55:00
12:15 PM,80.6,55.4,42,29.97,10.0,NNE,13.8,19.6,N/A,,Clear,20,2013-08-21 17:15:00
12:35 PM,80.6,55.4,42,29.97,10.0,NNE,11.5,19.6,N/A,,Clear,20,2013-08-21 17:35:00
12:55 PM,80.6,57.2,45,29.98,10.0,North,13.8,17.3,N/A,,Clear,360,2013-08-21 17:55:00
1:15 PM,80.6,55.4,42,29.98,10.0,North,13.8,-,N/A,,Clear,360,2013-08-21 18:15:00
1:35 PM,80.6,55.4,42,29.99,10.0,North,12.7,-,N/A,,Clear,360,2013-08-21 18:35:00
1:55 PM,82.4,51.8,35,29.99,10.0,NNE,12.7,-,N/A,,Clear,30,2013-08-21 18:55:00
2:15 PM,82.4,51.8,35,29.99,10.0,NE,11.5,-,N/A,,Clear,40,2013-08-21 19:15:00
2:35 PM,82.4,50.0,32,29.99,10.0,NNE,10.4,-,N/A,,Clear,30,2013-08-21 19:35:00
2:55 PM,82.4,50.0,32,29.99,10.0,North,9.2,18.4,N/A,,Clear,10,2013-08-21 19:55:00
3:15 PM,84.2,50.0,30,29.99,10.0,NNE,8.1,-,N/A,,Clear,20,2013-08-21 20:15:00
3:35 PM,84.2,46.4,27,29.99,10.0,North,10.4,16.1,N/A,,Clear,360,2013-08-21 20:35:00
3:55 PM,84.2,50.0,30,29.99,10.0,North,10.4,-,N/A,,Clear,360,2013-08-21 20:55:00
4:15 PM,82.4,48.2,30,29.99,10.0,North,13.8,-,N/A,,Clear,350,2013-08-21 21:15:00
4:35 PM,84.2,48.2,29,29.99,10.0,NNE,11.5,-,N/A,,Clear,20,2013-08-21 21:35:00
4:55 PM,84.2,46.4,27,30.00,10.0,North,10.4,-,N/A,,Clear,350,2013-08-21 21:55:00
5:15 PM,82.4,48.2,30,30.00,10.0,North,10.4,-,N/A,,Clear,360,2013-08-21 22:15:00
5:35 PM,84.2,46.4,27,30.01,10.0,NNE,10.4,-,N/A,,Clear,20,2013-08-21 22:35:00
5:55 PM,82.4,46.4,28,30.00,10.0,North,12.7,-,N/A,,Clear,360,2013-08-21 22:55:00
6:15 PM,82.4,46.4,28,30.00,10.0,NNE,10.4,-,N/A,,Clear,30,2013-08-21 23:15:00
6:35 PM,82.4,48.2,30,30.01,10.0,North,11.5,-,N/A,,Clear,360,2013-08-21 23:35:00
6:55 PM,80.6,48.2,32,30.00,10.0,North,11.5,-,N/A,,Clear,360,2013-08-21 23:55:00
7:15 PM,80.6,50.0,34,30.01,10.0,North,10.4,-,N/A,,Clear,360,2013-08-22 00:15:00
7:35 PM,78.8,50.0,36,30.01,10.0,North,8.1,-,N/A,,Clear,10,2013-08-22 00:35:00
7:55 PM,77.0,50.0,39,30.02,10.0,North,8.1,-,N/A,,Clear,10,2013-08-22 00:55:00
8:15 PM,75.2,50.0,41,30.02,10.0,NNE,8.1,-,N/A,,Clear,20,2013-08-22 01:15:00
8:35 PM,73.4,48.2,41,30.03,10.0,NNE,6.9,-,N/A,,Clear,20,2013-08-22 01:35:00
8:55 PM,73.4,48.2,41,30.03,10.0,NNE,6.9,-,N/A,,Clear,20,2013-08-22 01:55:00
9:15 PM,71.6,48.2,43,30.04,10.0,North,6.9,-,N/A,,Clear,10,2013-08-22 02:15:00
9:35 PM,71.6,50.0,46,30.04,10.0,NNE,6.9,-,N/A,,Clear,20,2013-08-22 02:35:00
9:55 PM,71.6,50.0,46,30.04,10.0,North,10.4,-,N/A,,Clear,10,2013-08-22 02:55:00
10:15 PM,71.6,48.2,43,30.06,10.0,NNE,11.5,-,N/A,,Clear,20,2013-08-22 03:15:00
10:35 PM,69.8,48.2,46,30.05,10.0,NNE,12.7,-,N/A,,Clear,20,2013-08-22 03:35:00
10:55 PM,69.8,48.2,46,30.05,10.0,NNE,12.7,-,N/A,,Clear,30,2013-08-22 03:55:00
11:15 PM,68.0,48.2,49,30.05,10.0,NNE,11.5,-,N/A,,Clear,30,2013-08-22 04:15:00
11:35 PM,68.0,48.2,49,30.05,10.0,NE,9.2,-,N/A,,Clear,40,2013-08-22 04:35:00
11:55 PM,68.0,50.0,52,30.06,10.0,NE,5.8,-,N/A,,Clear,50,2013-08-22 04:55:00